sensor_id;sensor_type;location;lat;lon;timestamp;P1;P2;P0
70436;PMS5003;57877;39.750;-104.894;2023-05-07T00:01:35;0;0;
70436;PMS5003;57877;39.750;-104.894;2023-05-07T00:04:01;0;0;
70436;PMS5003;57877;39.750;-104.894;2023-05-07T00:06:27;0;0;
70436;PMS5003;57877;39.750;-104.894;2023-05-07T00:08:53;0;0;
70436;PMS5003;57877;39.750;-104.894;2023-05-07T00:11:19;0;0;
70436;PMS5003;57877;39.750;-104.894;2023-05-07T00:13:45;0;0;
70436;PMS5003;57877;39.750;-104.894;2023-05-07T00:16:11;0;0;
70436;PMS5003;57877;39.750;-104.894;2023-05-07T00:18:36;0;0;
70436;PMS5003;57877;39.750;-104.894;2023-05-07T00:21:01;0;0;
70436;PMS5003;57877;39.750;-104.894;2023-05-07T00:23:27;0;0;
70436;PMS5003;57877;39.750;-104.894;2023-05-07T00:25:53;0;0;
70436;PMS5003;57877;39.750;-104.894;2023-05-07T00:28:19;0;0;
70436;PMS5003;57877;39.750;-104.894;2023-05-07T00:30:45;0;0;
70436;PMS5003;57877;39.750;-104.894;2023-05-07T00:33:11;0;0;
70436;PMS5003;57877;39.750;-104.894;2023-05-07T00:35:35;0;0;
70436;PMS5003;57877;39.750;-104.894;2023-05-07T00:38:00;0;0;
70436;PMS5003;57877;39.750;-104.894;2023-05-07T00:40:25;0;0;
70436;PMS5003;57877;39.750;-104.894;2023-05-07T00:42:50;0;0;
70436;PMS5003;57877;39.750;-104.894;2023-05-07T00:45:16;0;0;
70436;PMS5003;57877;39.750;-104.894;2023-05-07T00:47:42;0;0;
70436;PMS5003;57877;39.750;-104.894;2023-05-07T00:50:09;0;0;
70436;PMS5003;57877;39.750;-104.894;2023-05-07T00:52:34;0;0;
70436;PMS5003;57877;39.750;-104.894;2023-05-07T00:55:01;0;0;
70436;PMS5003;57877;39.750;-104.894;2023-05-07T00:57:25;0;0;
70436;PMS5003;57877;39.750;-104.894;2023-05-07T00:59:50;0;0;
70436;PMS5003;57877;39.750;-104.894;2023-05-07T01:02:15;0;0;
70436;PMS5003;57877;39.750;-104.894;2023-05-07T01:04:40;0;0;
70436;PMS5003;57877;39.750;-104.894;2023-05-07T01:07:05;0;0;
70436;PMS5003;57877;39.750;-104.894;2023-05-07T01:09:31;0;0;
70436;PMS5003;57877;39.750;-104.894;2023-05-07T01:11:55;0;0;
70436;PMS5003;57877;39.750;-104.894;2023-05-07T01:14:21;0;0;
70436;PMS5003;57877;39.750;-104.894;2023-05-07T01:16:47;0;0;
70436;PMS5003;57877;39.750;-104.894;2023-05-07T01:19:12;0;0;
70436;PMS5003;57877;39.750;-104.894;2023-05-07T01:21:39;0;0;
70436;PMS5003;57877;39.750;-104.894;2023-05-07T01:24:05;0;0;
70436;PMS5003;57877;39.750;-104.894;2023-05-07T01:26:31;1;0;
70436;PMS5003;57877;39.750;-104.894;2023-05-07T01:28:57;0;0;
70436;PMS5003;57877;39.750;-104.894;2023-05-07T01:31:23;0;0;
70436;PMS5003;57877;39.750;-104.894;2023-05-07T01:33:49;0;0;
70436;PMS5003;57877;39.750;-104.894;2023-05-07T01:36:14;0;0;
70436;PMS5003;57877;39.750;-104.894;2023-05-07T01:38:41;0;0;
70436;PMS5003;57877;39.750;-104.894;2023-05-07T01:41:05;0;0;
70436;PMS5003;57877;39.750;-104.894;2023-05-07T01:43:31;0;0;
70436;PMS5003;57877;39.750;-104.894;2023-05-07T01:45:57;0;0;
70436;PMS5003;57877;39.750;-104.894;2023-05-07T01:48:21;0;0;
70436;PMS5003;57877;39.750;-104.894;2023-05-07T01:50:46;0;0;
70436;PMS5003;57877;39.750;-104.894;2023-05-07T01:53:11;0;0;
70436;PMS5003;57877;39.750;-104.894;2023-05-07T01:55:36;0;0;
70436;PMS5003;57877;39.750;-104.894;2023-05-07T01:58:01;0;0;
70436;PMS5003;57877;39.750;-104.894;2023-05-07T02:00:26;0;0;
70436;PMS5003;57877;39.750;-104.894;2023-05-07T02:02:51;0;0;
70436;PMS5003;57877;39.750;-104.894;2023-05-07T02:05:16;0;0;
70436;PMS5003;57877;39.750;-104.894;2023-05-07T02:07:41;0;0;
70436;PMS5003;57877;39.750;-104.894;2023-05-07T02:10:06;0;0;
70436;PMS5003;57877;39.750;-104.894;2023-05-07T02:12:31;0;0;
70436;PMS5003;57877;39.750;-104.894;2023-05-07T02:14:57;0;0;
70436;PMS5003;57877;39.750;-104.894;2023-05-07T02:17:23;0;0;
70436;PMS5003;57877;39.750;-104.894;2023-05-07T02:19:49;0;0;
70436;PMS5003;57877;39.750;-104.894;2023-05-07T02:22:15;0;0;
70436;PMS5003;57877;39.750;-104.894;2023-05-07T02:24:41;0;0;
70436;PMS5003;57877;39.750;-104.894;2023-05-07T02:27:07;0;0;
70436;PMS5003;57877;39.750;-104.894;2023-05-07T02:29:33;0;0;
70436;PMS5003;57877;39.750;-104.894;2023-05-07T02:31:58;0;0;
70436;PMS5003;57877;39.750;-104.894;2023-05-07T02:34:24;0;0;
70436;PMS5003;57877;39.750;-104.894;2023-05-07T02:36:50;0;0;
70436;PMS5003;57877;39.750;-104.894;2023-05-07T02:39:16;0;0;
70436;PMS5003;57877;39.750;-104.894;2023-05-07T02:41:40;0;0;
70436;PMS5003;57877;39.750;-104.894;2023-05-07T02:44:06;0;0;
70436;PMS5003;57877;39.750;-104.894;2023-05-07T02:46:32;1;1;
70436;PMS5003;57877;39.750;-104.894;2023-05-07T02:48:58;0;0;
70436;PMS5003;57877;39.750;-104.894;2023-05-07T02:51:23;0;0;
70436;PMS5003;57877;39.750;-104.894;2023-05-07T02:53:50;4;4;
70436;PMS5003;57877;39.750;-104.894;2023-05-07T02:56:15;1;0;
70436;PMS5003;57877;39.750;-104.894;2023-05-07T02:58:40;0;0;
70436;PMS5003;57877;39.750;-104.894;2023-05-07T03:01:07;1;0;
70436;PMS5003;57877;39.750;-104.894;2023-05-07T03:03:33;0;0;
70436;PMS5003;57877;39.750;-104.894;2023-05-07T03:05:58;0;0;
70436;PMS5003;57877;39.750;-104.894;2023-05-07T03:08:25;0;0;
70436;PMS5003;57877;39.750;-104.894;2023-05-07T03:10:50;0;0;
70436;PMS5003;57877;39.750;-104.894;2023-05-07T03:13:14;0;0;
70436;PMS5003;57877;39.750;-104.894;2023-05-07T03:15:40;0;0;
70436;PMS5003;57877;39.750;-104.894;2023-05-07T03:18:07;0;0;
70436;PMS5003;57877;39.750;-104.894;2023-05-07T03:20:33;0;0;
70436;PMS5003;57877;39.750;-104.894;2023-05-07T03:22:58;0;0;
70436;PMS5003;57877;39.750;-104.894;2023-05-07T03:25:25;0;0;
70436;PMS5003;57877;39.750;-104.894;2023-05-07T03:27:50;0;0;
70436;PMS5003;57877;39.750;-104.894;2023-05-07T03:30:17;0;0;
70436;PMS5003;57877;39.750;-104.894;2023-05-07T03:32:42;0;0;
70436;PMS5003;57877;39.750;-104.894;2023-05-07T03:35:09;0;0;
70436;PMS5003;57877;39.750;-104.894;2023-05-07T03:37:34;1;0;
70436;PMS5003;57877;39.750;-104.894;2023-05-07T03:40:00;0;0;
70436;PMS5003;57877;39.750;-104.894;2023-05-07T03:42:26;0;0;
70436;PMS5003;57877;39.750;-104.894;2023-05-07T03:44:52;0;0;
70436;PMS5003;57877;39.750;-104.894;2023-05-07T03:47:18;0;0;
70436;PMS5003;57877;39.750;-104.894;2023-05-07T03:49:44;0;0;
70436;PMS5003;57877;39.750;-104.894;2023-05-07T03:52:10;2;1;
70436;PMS5003;57877;39.750;-104.894;2023-05-07T03:54:36;0;0;
70436;PMS5003;57877;39.750;-104.894;2023-05-07T03:57:02;0;0;
70436;PMS5003;57877;39.750;-104.894;2023-05-07T03:59:28;0;0;
70436;PMS5003;57877;39.750;-104.894;2023-05-07T04:01:54;1;1;
70436;PMS5003;57877;39.750;-104.894;2023-05-07T04:04:20;0;0;
70436;PMS5003;57877;39.750;-104.894;2023-05-07T04:06:46;0;0;
70436;PMS5003;57877;39.750;-104.894;2023-05-07T04:09:12;0;0;
70436;PMS5003;57877;39.750;-104.894;2023-05-07T04:11:38;0;0;
70436;PMS5003;57877;39.750;-104.894;2023-05-07T04:14:04;0;0;
70436;PMS5003;57877;39.750;-104.894;2023-05-07T04:16:30;0;0;
70436;PMS5003;57877;39.750;-104.894;2023-05-07T04:18:56;17;17;
70436;PMS5003;57877;39.750;-104.894;2023-05-07T04:21:22;15;14;
70436;PMS5003;57877;39.750;-104.894;2023-05-07T04:23:48;8;8;
70436;PMS5003;57877;39.750;-104.894;2023-05-07T04:26:14;18;16;
70436;PMS5003;57877;39.750;-104.894;2023-05-07T04:28:39;12;12;
70436;PMS5003;57877;39.750;-104.894;2023-05-07T04:31:06;5;5;
70436;PMS5003;57877;39.750;-104.894;2023-05-07T04:33:31;3;3;
70436;PMS5003;57877;39.750;-104.894;2023-05-07T04:35:57;3;3;
70436;PMS5003;57877;39.750;-104.894;2023-05-07T04:38:23;4;4;
70436;PMS5003;57877;39.750;-104.894;2023-05-07T04:40:49;6;6;
70436;PMS5003;57877;39.750;-104.894;2023-05-07T04:43:15;4;4;
70436;PMS5003;57877;39.750;-104.894;2023-05-07T04:45:41;2;2;
70436;PMS5003;57877;39.750;-104.894;2023-05-07T04:48:08;2;2;
70436;PMS5003;57877;39.750;-104.894;2023-05-07T04:50:33;3;3;
70436;PMS5003;57877;39.750;-104.894;2023-05-07T04:52:59;3;3;
70436;PMS5003;57877;39.750;-104.894;2023-05-07T04:55:25;3;2;
70436;PMS5003;57877;39.750;-104.894;2023-05-07T04:57:52;4;4;
70436;PMS5003;57877;39.750;-104.894;2023-05-07T05:00:17;1;1;
70436;PMS5003;57877;39.750;-104.894;2023-05-07T05:02:43;2;1;
70436;PMS5003;57877;39.750;-104.894;2023-05-07T05:05:09;2;1;
70436;PMS5003;57877;39.750;-104.894;2023-05-07T05:07:35;0;0;
70436;PMS5003;57877;39.750;-104.894;2023-05-07T05:10:02;0;0;
70436;PMS5003;57877;39.750;-104.894;2023-05-07T05:12:27;1;1;
70436;PMS5003;57877;39.750;-104.894;2023-05-07T05:14:53;1;1;
70436;PMS5003;57877;39.750;-104.894;2023-05-07T05:17:19;0;0;
70436;PMS5003;57877;39.750;-104.894;2023-05-07T05:19:45;3;1;
70436;PMS5003;57877;39.750;-104.894;2023-05-07T05:22:11;2;2;
70436;PMS5003;57877;39.750;-104.894;2023-05-07T05:24:37;1;1;
70436;PMS5003;57877;39.750;-104.894;2023-05-07T05:27:03;5;5;
70436;PMS5003;57877;39.750;-104.894;2023-05-07T05:29:29;3;3;
70436;PMS5003;57877;39.750;-104.894;2023-05-07T05:31:55;4;4;
70436;PMS5003;57877;39.750;-104.894;2023-05-07T05:34:21;5;4;
70436;PMS5003;57877;39.750;-104.894;2023-05-07T05:36:47;3;3;
70436;PMS5003;57877;39.750;-104.894;2023-05-07T05:39:13;2;2;
70436;PMS5003;57877;39.750;-104.894;2023-05-07T05:41:39;2;2;
70436;PMS5003;57877;39.750;-104.894;2023-05-07T05:44:05;0;0;
70436;PMS5003;57877;39.750;-104.894;2023-05-07T05:46:31;0;0;
70436;PMS5003;57877;39.750;-104.894;2023-05-07T05:48:56;0;0;
70436;PMS5003;57877;39.750;-104.894;2023-05-07T05:51:22;0;0;
70436;PMS5003;57877;39.750;-104.894;2023-05-07T05:53:48;0;0;
70436;PMS5003;57877;39.750;-104.894;2023-05-07T05:56:15;0;0;
70436;PMS5003;57877;39.750;-104.894;2023-05-07T05:58:40;1;1;
70436;PMS5003;57877;39.750;-104.894;2023-05-07T06:01:06;1;1;
70436;PMS5003;57877;39.750;-104.894;2023-05-07T06:03:32;3;1;
70436;PMS5003;57877;39.750;-104.894;2023-05-07T06:05:58;0;0;
70436;PMS5003;57877;39.750;-104.894;2023-05-07T06:08:24;0;0;
70436;PMS5003;57877;39.750;-104.894;2023-05-07T06:10:52;1;1;
70436;PMS5003;57877;39.750;-104.894;2023-05-07T06:13:22;2;2;
70436;PMS5003;57877;39.750;-104.894;2023-05-07T06:15:42;2;2;
70436;PMS5003;57877;39.750;-104.894;2023-05-07T06:18:09;0;0;
70436;PMS5003;57877;39.750;-104.894;2023-05-07T06:20:35;1;1;
70436;PMS5003;57877;39.750;-104.894;2023-05-07T06:23:00;2;2;
70436;PMS5003;57877;39.750;-104.894;2023-05-07T06:25:26;3;2;
70436;PMS5003;57877;39.750;-104.894;2023-05-07T06:27:52;2;1;
70436;PMS5003;57877;39.750;-104.894;2023-05-07T06:30:18;2;2;
70436;PMS5003;57877;39.750;-104.894;2023-05-07T06:32:44;2;2;
70436;PMS5003;57877;39.750;-104.894;2023-05-07T06:35:10;3;2;
70436;PMS5003;57877;39.750;-104.894;2023-05-07T06:37:36;2;2;
70436;PMS5003;57877;39.750;-104.894;2023-05-07T06:40:02;2;2;
70436;PMS5003;57877;39.750;-104.894;2023-05-07T06:42:28;3;2;
70436;PMS5003;57877;39.750;-104.894;2023-05-07T06:44:54;1;1;
70436;PMS5003;57877;39.750;-104.894;2023-05-07T06:47:20;3;3;
70436;PMS5003;57877;39.750;-104.894;2023-05-07T06:49:46;2;2;
70436;PMS5003;57877;39.750;-104.894;2023-05-07T06:52:12;2;2;
70436;PMS5003;57877;39.750;-104.894;2023-05-07T06:54:40;2;2;
70436;PMS5003;57877;39.750;-104.894;2023-05-07T06:57:04;1;1;
70436;PMS5003;57877;39.750;-104.894;2023-05-07T06:59:32;3;1;
70436;PMS5003;57877;39.750;-104.894;2023-05-07T07:01:56;1;1;
70436;PMS5003;57877;39.750;-104.894;2023-05-07T07:04:23;4;4;
70436;PMS5003;57877;39.750;-104.894;2023-05-07T07:06:48;6;6;
70436;PMS5003;57877;39.750;-104.894;2023-05-07T07:09:14;6;6;
70436;PMS5003;57877;39.750;-104.894;2023-05-07T07:11:40;5;5;
70436;PMS5003;57877;39.750;-104.894;2023-05-07T07:14:06;6;6;
70436;PMS5003;57877;39.750;-104.894;2023-05-07T07:16:32;6;6;
70436;PMS5003;57877;39.750;-104.894;2023-05-07T07:18:58;6;5;
70436;PMS5003;57877;39.750;-104.894;2023-05-07T07:21:24;3;3;
70436;PMS5003;57877;39.750;-104.894;2023-05-07T07:23:50;3;3;
70436;PMS5003;57877;39.750;-104.894;2023-05-07T07:26:14;3;3;
70436;PMS5003;57877;39.750;-104.894;2023-05-07T07:28:45;4;4;
70436;PMS5003;57877;39.750;-104.894;2023-05-07T07:31:13;3;3;
70436;PMS5003;57877;39.750;-104.894;2023-05-07T07:33:35;3;3;
70436;PMS5003;57877;39.750;-104.894;2023-05-07T07:35:59;3;3;
70436;PMS5003;57877;39.750;-104.894;2023-05-07T07:38:26;4;4;
70436;PMS5003;57877;39.750;-104.894;2023-05-07T07:40:50;3;3;
70436;PMS5003;57877;39.750;-104.894;2023-05-07T07:43:16;5;5;
70436;PMS5003;57877;39.750;-104.894;2023-05-07T07:45:42;4;3;
70436;PMS5003;57877;39.750;-104.894;2023-05-07T07:48:08;4;3;
70436;PMS5003;57877;39.750;-104.894;2023-05-07T07:50:35;3;3;
70436;PMS5003;57877;39.750;-104.894;2023-05-07T07:53:04;3;3;
70436;PMS5003;57877;39.750;-104.894;2023-05-07T07:55:28;4;4;
70436;PMS5003;57877;39.750;-104.894;2023-05-07T07:57:52;4;4;
70436;PMS5003;57877;39.750;-104.894;2023-05-07T08:00:19;3;3;
70436;PMS5003;57877;39.750;-104.894;2023-05-07T08:02:46;5;5;
70436;PMS5003;57877;39.750;-104.894;2023-05-07T08:05:10;3;3;
70436;PMS5003;57877;39.750;-104.894;2023-05-07T08:07:37;5;4;
70436;PMS5003;57877;39.750;-104.894;2023-05-07T08:10:07;6;6;
70436;PMS5003;57877;39.750;-104.894;2023-05-07T08:12:28;4;4;
70436;PMS5003;57877;39.750;-104.894;2023-05-07T08:14:54;6;6;
70436;PMS5003;57877;39.750;-104.894;2023-05-07T08:17:21;7;6;
70436;PMS5003;57877;39.750;-104.894;2023-05-07T08:19:46;6;6;
70436;PMS5003;57877;39.750;-104.894;2023-05-07T08:22:12;4;4;
70436;PMS5003;57877;39.750;-104.894;2023-05-07T08:24:38;7;7;
70436;PMS5003;57877;39.750;-104.894;2023-05-07T08:27:05;5;5;
70436;PMS5003;57877;39.750;-104.894;2023-05-07T08:29:30;6;6;
70436;PMS5003;57877;39.750;-104.894;2023-05-07T08:31:56;6;6;
70436;PMS5003;57877;39.750;-104.894;2023-05-07T08:34:22;5;5;
70436;PMS5003;57877;39.750;-104.894;2023-05-07T08:36:48;6;6;
70436;PMS5003;57877;39.750;-104.894;2023-05-07T08:39:14;5;5;
70436;PMS5003;57877;39.750;-104.894;2023-05-07T08:41:40;4;4;
70436;PMS5003;57877;39.750;-104.894;2023-05-07T08:44:06;5;5;
70436;PMS5003;57877;39.750;-104.894;2023-05-07T08:46:32;4;4;
70436;PMS5003;57877;39.750;-104.894;2023-05-07T08:48:58;5;5;
70436;PMS5003;57877;39.750;-104.894;2023-05-07T08:51:24;3;3;
70436;PMS5003;57877;39.750;-104.894;2023-05-07T08:53:50;3;2;
70436;PMS5003;57877;39.750;-104.894;2023-05-07T08:56:17;1;1;
70436;PMS5003;57877;39.750;-104.894;2023-05-07T08:58:42;4;4;
70436;PMS5003;57877;39.750;-104.894;2023-05-07T09:01:08;2;2;
70436;PMS5003;57877;39.750;-104.894;2023-05-07T09:03:33;0;0;
70436;PMS5003;57877;39.750;-104.894;2023-05-07T09:05:59;0;0;
70436;PMS5003;57877;39.750;-104.894;2023-05-07T09:08:24;1;1;
70436;PMS5003;57877;39.750;-104.894;2023-05-07T09:10:51;2;2;
70436;PMS5003;57877;39.750;-104.894;2023-05-07T09:13:16;0;0;
70436;PMS5003;57877;39.750;-104.894;2023-05-07T09:15:42;0;0;
70436;PMS5003;57877;39.750;-104.894;2023-05-07T09:18:11;0;0;
70436;PMS5003;57877;39.750;-104.894;2023-05-07T09:20:33;1;1;
70436;PMS5003;57877;39.750;-104.894;2023-05-07T09:23:00;1;1;
70436;PMS5003;57877;39.750;-104.894;2023-05-07T09:25:30;1;1;
70436;PMS5003;57877;39.750;-104.894;2023-05-07T09:27:52;1;0;
70436;PMS5003;57877;39.750;-104.894;2023-05-07T09:30:17;0;0;
70436;PMS5003;57877;39.750;-104.894;2023-05-07T09:32:43;1;1;
70436;PMS5003;57877;39.750;-104.894;2023-05-07T09:35:14;0;0;
70436;PMS5003;57877;39.750;-104.894;2023-05-07T09:37:36;0;0;
70436;PMS5003;57877;39.750;-104.894;2023-05-07T09:40:02;1;0;
70436;PMS5003;57877;39.750;-104.894;2023-05-07T09:42:28;0;0;
70436;PMS5003;57877;39.750;-104.894;2023-05-07T09:44:54;0;0;
70436;PMS5003;57877;39.750;-104.894;2023-05-07T09:47:20;0;0;
70436;PMS5003;57877;39.750;-104.894;2023-05-07T09:49:46;0;0;
70436;PMS5003;57877;39.750;-104.894;2023-05-07T09:52:11;0;0;
70436;PMS5003;57877;39.750;-104.894;2023-05-07T09:54:37;0;0;
70436;PMS5003;57877;39.750;-104.894;2023-05-07T09:57:03;1;1;
70436;PMS5003;57877;39.750;-104.894;2023-05-07T09:59:29;0;0;
70436;PMS5003;57877;39.750;-104.894;2023-05-07T10:01:55;0;0;
70436;PMS5003;57877;39.750;-104.894;2023-05-07T10:04:19;0;0;
70436;PMS5003;57877;39.750;-104.894;2023-05-07T10:06:45;0;0;
70436;PMS5003;57877;39.750;-104.894;2023-05-07T10:09:10;0;0;
70436;PMS5003;57877;39.750;-104.894;2023-05-07T10:11:36;0;0;
70436;PMS5003;57877;39.750;-104.894;2023-05-07T10:14:01;0;0;
70436;PMS5003;57877;39.750;-104.894;2023-05-07T10:16:26;0;0;
70436;PMS5003;57877;39.750;-104.894;2023-05-07T10:18:51;0;0;
70436;PMS5003;57877;39.750;-104.894;2023-05-07T10:21:18;0;0;
70436;PMS5003;57877;39.750;-104.894;2023-05-07T10:23:42;0;0;
70436;PMS5003;57877;39.750;-104.894;2023-05-07T10:26:07;0;0;
70436;PMS5003;57877;39.750;-104.894;2023-05-07T10:28:33;0;0;
70436;PMS5003;57877;39.750;-104.894;2023-05-07T10:31:01;0;0;
70436;PMS5003;57877;39.750;-104.894;2023-05-07T10:33:24;0;0;
70436;PMS5003;57877;39.750;-104.894;2023-05-07T10:35:48;0;0;
70436;PMS5003;57877;39.750;-104.894;2023-05-07T10:38:13;0;0;
70436;PMS5003;57877;39.750;-104.894;2023-05-07T10:40:38;0;0;
70436;PMS5003;57877;39.750;-104.894;2023-05-07T10:43:04;0;0;
70436;PMS5003;57877;39.750;-104.894;2023-05-07T10:45:30;0;0;
70436;PMS5003;57877;39.750;-104.894;2023-05-07T10:50:20;0;0;
70436;PMS5003;57877;39.750;-104.894;2023-05-07T10:52:46;0;0;
70436;PMS5003;57877;39.750;-104.894;2023-05-07T10:57:38;1;0;
70436;PMS5003;57877;39.750;-104.894;2023-05-07T11:00:04;1;1;
70436;PMS5003;57877;39.750;-104.894;2023-05-07T11:07:24;0;0;
70436;PMS5003;57877;39.750;-104.894;2023-05-07T11:12:09;0;0;
70436;PMS5003;57877;39.750;-104.894;2023-05-07T11:17:02;2;2;
70436;PMS5003;57877;39.750;-104.894;2023-05-07T11:21:51;1;1;
70436;PMS5003;57877;39.750;-104.894;2023-05-07T11:24:16;1;0;
70436;PMS5003;57877;39.750;-104.894;2023-05-07T11:26:43;2;0;
70436;PMS5003;57877;39.750;-104.894;2023-05-07T11:29:10;0;0;
70436;PMS5003;57877;39.750;-104.894;2023-05-07T11:31:33;0;0;
70436;PMS5003;57877;39.750;-104.894;2023-05-07T11:33:59;0;0;
70436;PMS5003;57877;39.750;-104.894;2023-05-07T11:36:25;1;1;
70436;PMS5003;57877;39.750;-104.894;2023-05-07T11:38:51;1;0;
70436;PMS5003;57877;39.750;-104.894;2023-05-07T11:41:17;0;0;
70436;PMS5003;57877;39.750;-104.894;2023-05-07T11:46:10;1;1;
70436;PMS5003;57877;39.750;-104.894;2023-05-07T11:48:35;0;0;
70436;PMS5003;57877;39.750;-104.894;2023-05-07T11:51:01;0;0;
70436;PMS5003;57877;39.750;-104.894;2023-05-07T11:53:27;0;0;
70436;PMS5003;57877;39.750;-104.894;2023-05-07T11:55:52;1;0;
70436;PMS5003;57877;39.750;-104.894;2023-05-07T11:58:20;0;0;
70436;PMS5003;57877;39.750;-104.894;2023-05-07T12:00:48;0;0;
70436;PMS5003;57877;39.750;-104.894;2023-05-07T12:03:09;0;0;
70436;PMS5003;57877;39.750;-104.894;2023-05-07T12:05:35;0;0;
70436;PMS5003;57877;39.750;-104.894;2023-05-07T12:08:01;0;0;
70436;PMS5003;57877;39.750;-104.894;2023-05-07T12:10:27;0;0;
70436;PMS5003;57877;39.750;-104.894;2023-05-07T12:12:53;0;0;
70436;PMS5003;57877;39.750;-104.894;2023-05-07T12:15:18;0;0;
70436;PMS5003;57877;39.750;-104.894;2023-05-07T12:17:43;0;0;
70436;PMS5003;57877;39.750;-104.894;2023-05-07T12:20:09;0;0;
70436;PMS5003;57877;39.750;-104.894;2023-05-07T12:22:35;0;0;
70436;PMS5003;57877;39.750;-104.894;2023-05-07T12:25:00;0;0;
70436;PMS5003;57877;39.750;-104.894;2023-05-07T12:27:25;0;0;
70436;PMS5003;57877;39.750;-104.894;2023-05-07T12:29:50;0;0;
70436;PMS5003;57877;39.750;-104.894;2023-05-07T12:32:15;0;0;
70436;PMS5003;57877;39.750;-104.894;2023-05-07T12:34:40;0;0;
70436;PMS5003;57877;39.750;-104.894;2023-05-07T12:37:06;0;0;
70436;PMS5003;57877;39.750;-104.894;2023-05-07T12:39:32;0;0;
70436;PMS5003;57877;39.750;-104.894;2023-05-07T12:41:59;0;0;
70436;PMS5003;57877;39.750;-104.894;2023-05-07T12:44:25;0;0;
70436;PMS5003;57877;39.750;-104.894;2023-05-07T12:46:49;0;0;
70436;PMS5003;57877;39.750;-104.894;2023-05-07T12:49:16;0;0;
70436;PMS5003;57877;39.750;-104.894;2023-05-07T12:51:40;0;0;
70436;PMS5003;57877;39.750;-104.894;2023-05-07T12:54:06;0;0;
70436;PMS5003;57877;39.750;-104.894;2023-05-07T12:56:35;0;0;
70436;PMS5003;57877;39.750;-104.894;2023-05-07T12:58:58;0;0;
70436;PMS5003;57877;39.750;-104.894;2023-05-07T13:01:29;0;0;
70436;PMS5003;57877;39.750;-104.894;2023-05-07T13:03:51;0;0;
70436;PMS5003;57877;39.750;-104.894;2023-05-07T13:06:17;0;0;
70436;PMS5003;57877;39.750;-104.894;2023-05-07T13:08:42;0;0;
70436;PMS5003;57877;39.750;-104.894;2023-05-07T13:11:09;0;0;
70436;PMS5003;57877;39.750;-104.894;2023-05-07T13:13:35;0;0;
70436;PMS5003;57877;39.750;-104.894;2023-05-07T13:16:01;0;0;
70436;PMS5003;57877;39.750;-104.894;2023-05-07T13:18:26;0;0;
70436;PMS5003;57877;39.750;-104.894;2023-05-07T13:20:51;0;0;
70436;PMS5003;57877;39.750;-104.894;2023-05-07T13:23:16;0;0;
70436;PMS5003;57877;39.750;-104.894;2023-05-07T13:25:41;0;0;
70436;PMS5003;57877;39.750;-104.894;2023-05-07T13:28:06;0;0;
70436;PMS5003;57877;39.750;-104.894;2023-05-07T13:30:31;0;0;
70436;PMS5003;57877;39.750;-104.894;2023-05-07T13:32:56;0;0;
70436;PMS5003;57877;39.750;-104.894;2023-05-07T13:35:22;0;0;
70436;PMS5003;57877;39.750;-104.894;2023-05-07T13:37:48;0;0;
70436;PMS5003;57877;39.750;-104.894;2023-05-07T13:40:14;0;0;
70436;PMS5003;57877;39.750;-104.894;2023-05-07T13:42:40;0;0;
70436;PMS5003;57877;39.750;-104.894;2023-05-07T13:45:06;0;0;
70436;PMS5003;57877;39.750;-104.894;2023-05-07T13:47:32;0;0;
70436;PMS5003;57877;39.750;-104.894;2023-05-07T13:49:58;0;0;
70436;PMS5003;57877;39.750;-104.894;2023-05-07T13:52:24;0;0;
70436;PMS5003;57877;39.750;-104.894;2023-05-07T13:54:49;0;0;
70436;PMS5003;57877;39.750;-104.894;2023-05-07T13:57:14;0;0;
70436;PMS5003;57877;39.750;-104.894;2023-05-07T13:59:39;0;0;
70436;PMS5003;57877;39.750;-104.894;2023-05-07T14:02:05;0;0;
70436;PMS5003;57877;39.750;-104.894;2023-05-07T14:04:31;0;0;
70436;PMS5003;57877;39.750;-104.894;2023-05-07T14:06:57;0;0;
70436;PMS5003;57877;39.750;-104.894;2023-05-07T14:09:23;0;0;
70436;PMS5003;57877;39.750;-104.894;2023-05-07T14:11:49;0;0;
70436;PMS5003;57877;39.750;-104.894;2023-05-07T14:14:15;0;0;
70436;PMS5003;57877;39.750;-104.894;2023-05-07T14:16:41;0;0;
70436;PMS5003;57877;39.750;-104.894;2023-05-07T14:19:07;0;0;
70436;PMS5003;57877;39.750;-104.894;2023-05-07T14:21:33;0;0;
70436;PMS5003;57877;39.750;-104.894;2023-05-07T14:23:59;0;0;
70436;PMS5003;57877;39.750;-104.894;2023-05-07T14:26:25;0;0;
70436;PMS5003;57877;39.750;-104.894;2023-05-07T14:28:51;0;0;
70436;PMS5003;57877;39.750;-104.894;2023-05-07T14:31:16;0;0;
70436;PMS5003;57877;39.750;-104.894;2023-05-07T14:33:41;0;0;
70436;PMS5003;57877;39.750;-104.894;2023-05-07T14:36:06;1;1;
70436;PMS5003;57877;39.750;-104.894;2023-05-07T14:38:32;0;0;
70436;PMS5003;57877;39.750;-104.894;2023-05-07T14:40:57;0;0;
70436;PMS5003;57877;39.750;-104.894;2023-05-07T14:43:22;0;0;
70436;PMS5003;57877;39.750;-104.894;2023-05-07T14:45:47;0;0;
70436;PMS5003;57877;39.750;-104.894;2023-05-07T14:48:13;0;0;
70436;PMS5003;57877;39.750;-104.894;2023-05-07T14:50:39;0;0;
70436;PMS5003;57877;39.750;-104.894;2023-05-07T14:53:04;0;0;
70436;PMS5003;57877;39.750;-104.894;2023-05-07T14:55:29;0;0;
70436;PMS5003;57877;39.750;-104.894;2023-05-07T14:57:55;0;0;
70436;PMS5003;57877;39.750;-104.894;2023-05-07T15:00:21;0;0;
70436;PMS5003;57877;39.750;-104.894;2023-05-07T15:02:47;0;0;
70436;PMS5003;57877;39.750;-104.894;2023-05-07T15:05:14;0;0;
70436;PMS5003;57877;39.750;-104.894;2023-05-07T15:07:39;0;0;
70436;PMS5003;57877;39.750;-104.894;2023-05-07T15:10:06;0;0;
70436;PMS5003;57877;39.750;-104.894;2023-05-07T15:12:31;0;0;
70436;PMS5003;57877;39.750;-104.894;2023-05-07T15:14:58;0;0;
70436;PMS5003;57877;39.750;-104.894;2023-05-07T15:17:23;0;0;
70436;PMS5003;57877;39.750;-104.894;2023-05-07T15:19:50;0;0;
70436;PMS5003;57877;39.750;-104.894;2023-05-07T15:22:15;0;0;
70436;PMS5003;57877;39.750;-104.894;2023-05-07T15:24:42;0;0;
70436;PMS5003;57877;39.750;-104.894;2023-05-07T15:27:08;0;0;
70436;PMS5003;57877;39.750;-104.894;2023-05-07T15:29:33;0;0;
70436;PMS5003;57877;39.750;-104.894;2023-05-07T15:31:58;0;0;
70436;PMS5003;57877;39.750;-104.894;2023-05-07T15:34:23;0;0;
70436;PMS5003;57877;39.750;-104.894;2023-05-07T15:36:48;0;0;
70436;PMS5003;57877;39.750;-104.894;2023-05-07T15:39:13;0;0;
70436;PMS5003;57877;39.750;-104.894;2023-05-07T15:41:38;0;0;
70436;PMS5003;57877;39.750;-104.894;2023-05-07T15:44:03;0;0;
70436;PMS5003;57877;39.750;-104.894;2023-05-07T15:46:28;0;0;
70436;PMS5003;57877;39.750;-104.894;2023-05-07T15:48:53;0;0;
70436;PMS5003;57877;39.750;-104.894;2023-05-07T15:51:18;0;0;
70436;PMS5003;57877;39.750;-104.894;2023-05-07T15:53:43;0;0;
70436;PMS5003;57877;39.750;-104.894;2023-05-07T15:56:08;0;0;
70436;PMS5003;57877;39.750;-104.894;2023-05-07T15:58:33;0;0;
70436;PMS5003;57877;39.750;-104.894;2023-05-07T16:00:58;0;0;
70436;PMS5003;57877;39.750;-104.894;2023-05-07T16:03:23;0;0;
70436;PMS5003;57877;39.750;-104.894;2023-05-07T16:05:48;0;0;
70436;PMS5003;57877;39.750;-104.894;2023-05-07T16:08:13;0;0;
70436;PMS5003;57877;39.750;-104.894;2023-05-07T16:10:38;0;0;